Time;durP1;ratioP1;P1;durP2;ratioP2;P2;SDS_P1;SDS_P2;PMS_P1;PMS_P2;Temp;Humidity;BMP_temperature;BMP_pressure;BME280_temperature;BME280_humidity;BME280_pressure;Samples;Min_cycle;Max_cycle;Signal;HPM_P1;HPM_P2
2023/02/01 00:02:24;;;;;;;23.67;7.22;;;7.30;82.40;;;;;;5034964;28;20095;-74
2023/02/01 00:04:50;;;;;;;20.75;6.30;;;7.30;82.50;;;;;;5036687;28;20017;-74
2023/02/01 00:07:16;;;;;;;24.50;7.47;;;7.30;82.40;;;;;;5040367;28;20856;-75
2023/02/01 00:09:41;;;;;;;20.90;6.70;;;7.30;82.50;;;;;;5041791;28;20021;-74
2023/02/01 00:12:07;;;;;;;25.08;8.43;;;7.30;82.40;;;;;;5037485;28;20045;-74
2023/02/01 00:14:38;;;;;;;25.30;7.72;;;7.20;82.40;;;;;;5032924;28;20033;-74
2023/02/01 00:17:07;;;;;;;21.73;6.97;;;7.30;82.00;;;;;;5036017;28;20039;-75
2023/02/01 00:19:33;;;;;;;23.17;6.57;;;7.30;81.70;;;;;;5037968;28;20091;-74
2023/02/01 00:21:59;;;;;;;22.08;6.85;;;7.30;81.30;;;;;;5037063;28;20076;-74
2023/02/01 00:24:25;;;;;;;25.08;6.82;;;7.30;81.30;;;;;;5038110;28;20241;-74
2023/02/01 00:26:50;;;;;;;21.27;6.35;;;7.40;81.50;;;;;;5039491;28;20041;-74
2023/02/01 00:29:19;;;;;;;21.33;6.85;;;7.30;81.50;;;;;;5041782;28;20048;-74
2023/02/01 00:31:46;;;;;;;17.52;6.60;;;7.30;81.50;;;;;;5040926;28;20522;-74
2023/02/01 00:34:14;;;;;;;21.60;7.80;;;7.20;81.60;;;;;;5038216;28;20032;-74
2023/02/01 00:36:41;;;;;;;20.13;8.20;;;7.20;81.70;;;;;;5032963;28;20071;-74
2023/02/01 00:39:07;;;;;;;28.27;8.55;;;7.20;81.70;;;;;;5039709;28;20232;-74
2023/02/01 00:41:33;;;;;;;26.33;7.55;;;7.10;81.80;;;;;;5038963;28;20270;-74
2023/02/01 00:43:58;;;;;;;20.90;8.23;;;7.10;82.10;;;;;;5039100;28;20021;-74
2023/02/01 00:46:24;;;;;;;19.58;7.15;;;7.00;82.20;;;;;;5035183;28;20045;-74
2023/02/01 00:48:51;;;;;;;20.40;7.07;;;7.00;82.40;;;;;;5035052;28;20064;-74
2023/02/01 00:51:26;;;;;;;24.48;6.72;;;6.80;82.50;;;;;;5043562;28;20072;-74
2023/02/01 00:53:51;;;;;;;22.45;7.35;;;6.80;82.80;;;;;;5036086;28;20638;-74
2023/02/01 00:56:17;;;;;;;25.90;7.75;;;6.70;82.80;;;;;;5036214;28;20041;-74
2023/02/01 00:58:43;;;;;;;18.08;6.63;;;6.60;83.10;;;;;;5040541;28;20051;-74
2023/02/01 01:01:15;;;;;;;23.00;8.02;;;6.60;83.50;;;;;;5039865;28;20041;-74
2023/02/01 01:03:43;;;;;;;23.77;7.75;;;6.60;83.70;;;;;;5035817;28;20465;-74
2023/02/01 01:06:12;;;;;;;25.67;7.43;;;6.50;84.00;;;;;;5039974;28;20029;-74
2023/02/01 01:08:38;;;;;;;24.63;7.50;;;6.50;84.30;;;;;;5033025;28;20021;-74
2023/02/01 01:11:07;;;;;;;26.45;7.88;;;6.40;84.50;;;;;;5039573;28;20183;-74
2023/02/01 01:13:33;;;;;;;29.02;7.93;;;6.40;84.70;;;;;;5037756;28;20075;-74
2023/02/01 01:16:02;;;;;;;28.35;8.20;;;6.40;84.60;;;;;;5040526;28;20029;-74
2023/02/01 01:18:29;;;;;;;21.58;7.28;;;6.40;84.80;;;;;;5036482;28;20441;-74
2023/02/01 01:20:55;;;;;;;24.80;8.27;;;6.30;84.80;;;;;;5038588;28;20125;-74
2023/02/01 01:23:20;;;;;;;32.80;7.80;;;6.30;85.10;;;;;;5035991;28;20021;-74
2023/02/01 01:25:46;;;;;;;26.38;8.55;;;6.20;85.30;;;;;;5037914;28;20585;-75
2023/02/01 01:28:11;;;;;;;19.80;7.45;;;6.20;85.50;;;;;;5037844;28;20407;-75
2023/02/01 01:30:38;;;;;;;26.63;9.65;;;6.30;85.40;;;;;;5037782;28;20513;-75
2023/02/01 01:33:04;;;;;;;28.73;10.52;;;6.40;85.40;;;;;;5040349;28;20029;-75
2023/02/01 01:35:30;;;;;;;26.58;9.57;;;6.40;85.30;;;;;;5039541;28;20024;-75
2023/02/01 01:37:56;;;;;;;27.13;9.52;;;6.50;85.30;;;;;;5037172;28;20432;-75
2023/02/01 01:40:22;;;;;;;30.58;9.20;;;6.50;85.20;;;;;;5026893;28;20463;-74
2023/02/01 01:42:48;;;;;;;24.20;7.50;;;6.50;85.00;;;;;;5040731;28;20036;-75
2023/02/01 01:45:31;;;;;;;24.08;7.45;;;6.60;84.70;;;;;;5036621;28;20113;-74
2023/02/01 01:48:06;;;;;;;23.50;7.95;;;6.60;84.30;;;;;;5039307;28;20041;-74
2023/02/01 01:50:40;;;;;;;26.13;7.13;;;6.60;84.00;;;;;;5039894;28;20021;-74
2023/02/01 01:53:09;;;;;;;22.30;7.20;;;6.60;83.90;;;;;;5044850;28;20049;-74
2023/02/01 01:55:39;;;;;;;22.45;6.10;;;6.60;83.90;;;;;;5040814;28;20044;-74
2023/02/01 01:58:10;;;;;;;20.33;6.20;;;6.50;83.80;;;;;;5039926;28;20404;-74
2023/02/01 02:00:36;;;;;;;24.17;6.70;;;6.50;83.80;;;;;;5038522;28;20086;-74
2023/02/01 02:03:19;;;;;;;21.92;6.97;;;6.40;83.80;;;;;;5040689;28;20021;-75
2023/02/01 02:05:46;;;;;;;26.17;7.20;;;6.40;83.90;;;;;;5037379;28;20103;-74
2023/02/01 02:08:12;;;;;;;27.38;7.75;;;6.40;83.80;;;;;;5044396;28;20020;-74
2023/02/01 02:13:22;;;;;;;26.67;7.47;;;6.40;83.70;;;;;;5042973;28;20067;-74
2023/02/01 02:16:06;;;;;;;20.85;7.43;;;6.30;83.50;;;;;;5035509;28;20045;-74
2023/02/01 02:19:00;;;;;;;23.77;7.13;;;6.30;83.70;;;;;;5043381;28;20032;-75
2023/02/01 02:21:32;;;;;;;25.67;6.85;;;6.30;83.80;;;;;;5045983;28;20309;-75
2023/02/01 02:24:09;;;;;;;20.98;6.57;;;6.30;83.70;;;;;;5042212;28;20028;-74
2023/02/01 02:26:44;;;;;;;24.83;6.78;;;6.30;83.60;;;;;;5040570;28;20079;-75
2023/02/01 02:29:22;;;;;;;;;;;6.30;83.50;;;;;;5037895;28;20029;-75
2023/02/01 02:32:15;;;;;;;22.70;6.63;;;6.20;83.60;;;;;;5037357;28;19924;-75
2023/02/01 02:35:01;;;;;;;25.40;6.97;;;6.30;83.60;;;;;;5042259;28;20081;-75
2023/02/01 02:37:46;;;;;;;25.85;7.28;;;6.20;83.60;;;;;;5041199;28;20029;-74
2023/02/01 02:40:31;;;;;;;18.77;6.20;;;6.20;83.70;;;;;;5040373;28;20017;-74
2023/02/01 02:49:03;;;;;;;27.77;6.70;;;6.20;83.40;;;;;;5036939;28;20121;-74
2023/02/01 02:54:48;;;;;;;29.45;11.75;;;6.20;83.20;;;;;;5042145;28;20040;-73
2023/02/01 03:05:47;;;;;;;27.58;11.15;;;6.10;83.30;;;;;;5034191;28;20040;-75
2023/02/01 03:08:17;;;;;;;27.77;9.10;;;6.10;83.30;;;;;;5042588;28;20538;-75
2023/02/01 03:10:46;;;;;;;25.02;8.88;;;6.10;83.00;;;;;;5041208;28;20029;-74
2023/02/01 03:13:46;;;;;;;23.40;6.88;;;6.10;83.20;;;;;;5043485;28;20101;-74
2023/02/01 03:16:26;;;;;;;23.98;7.57;;;6.10;83.20;;;;;;5033641;28;20322;-74
2023/02/01 03:19:00;;;;;;;22.88;6.88;;;6.10;83.30;;;;;;5038894;28;20059;-74
2023/02/01 03:21:34;;;;;;;26.67;7.50;;;6.00;83.40;;;;;;5037407;28;20044;-74
2023/02/01 03:24:09;;;;;;;27.27;7.13;;;6.00;83.50;;;;;;5041928;28;20052;-74
2023/02/01 03:26:39;;;;;;;24.70;6.32;;;6.00;83.70;;;;;;5038660;28;20377;-74
2023/02/01 03:29:14;;;;;;;27.90;6.65;;;6.00;83.60;;;;;;5035784;28;20524;-74
2023/02/01 03:31:40;;;;;;;;;;;6.00;83.50;;;;;;5040465;28;20381;-74
2023/02/01 03:34:06;;;;;;;23.48;6.05;;;6.00;83.40;;;;;;5034874;28;19944;-74
2023/02/01 03:36:43;;;;;;;26.20;6.22;;;6.00;83.30;;;;;;5042185;28;20108;-74
2023/02/01 03:39:16;;;;;;;23.55;5.95;;;6.00;83.30;;;;;;5041051;28;20021;-75
2023/02/01 03:41:52;;;;;;;26.27;6.38;;;6.00;83.30;;;;;;5047277;28;20033;-74
2023/02/01 03:44:26;;;;;;;33.33;6.88;;;5.90;83.30;;;;;;5042177;28;20036;-74
2023/02/01 03:46:54;;;;;;;27.27;7.38;;;5.90;83.50;;;;;;5039512;28;20515;-74
2023/02/01 03:49:45;;;;;;;28.25;6.53;;;5.90;83.50;;;;;;5040210;28;20044;-74
2023/02/01 03:52:16;;;;;;;23.00;6.63;;;5.80;83.50;;;;;;5037723;28;20044;-74
2023/02/01 03:54:43;;;;;;;24.17;7.55;;;5.80;83.70;;;;;;5044186;28;20028;-75
2023/02/01 03:57:13;;;;;;;30.65;7.53;;;5.80;83.80;;;;;;5036546;28;20120;-73
2023/02/01 03:59:44;;;;;;;27.17;6.53;;;5.80;83.60;;;;;;5040428;28;20409;-74
2023/02/01 04:02:10;;;;;;;24.75;8.25;;;5.80;83.50;;;;;;5041104;28;20424;-74
2023/02/01 04:04:37;;;;;;;26.20;7.60;;;5.80;83.60;;;;;;5040960;28;20057;-74
2023/02/01 04:07:03;;;;;;;24.52;6.60;;;5.70;83.60;;;;;;5034844;28;20112;-74
2023/02/01 04:09:32;;;;;;;27.83;8.68;;;5.70;83.60;;;;;;5038256;28;20021;-75
2023/02/01 04:11:57;;;;;;;26.55;7.18;;;5.60;83.80;;;;;;5037291;28;20487;-74
2023/02/01 04:14:23;;;;;;;28.27;7.30;;;5.60;83.90;;;;;;5041422;28;20028;-75
2023/02/01 04:16:49;;;;;;;28.27;7.78;;;5.60;84.00;;;;;;5038275;28;20470;-75
2023/02/01 04:19:14;;;;;;;27.42;7.70;;;5.60;84.00;;;;;;5039964;28;20063;-74
2023/02/01 04:21:40;;;;;;;26.13;8.02;;;5.60;84.10;;;;;;5044342;28;20032;-74
2023/02/01 04:24:06;;;;;;;25.77;7.60;;;5.60;84.00;;;;;;5039819;28;20026;-75
2023/02/01 04:26:32;;;;;;;28.20;7.25;;;5.60;83.80;;;;;;5044188;28;20068;-75
2023/02/01 04:28:57;;;;;;;25.65;7.97;;;5.60;83.90;;;;;;5035866;28;20457;-75
2023/02/01 04:31:27;;;;;;;25.15;8.60;;;5.60;83.80;;;;;;5039565;28;20028;-75
2023/02/01 04:33:54;;;;;;;27.15;7.60;;;5.60;83.90;;;;;;5041312;28;20031;-74
2023/02/01 04:36:21;;;;;;;22.58;6.43;;;5.60;84.00;;;;;;5042433;28;20044;-74
2023/02/01 04:38:48;;;;;;;24.67;6.68;;;5.50;84.10;;;;;;5043031;28;20071;-73
2023/02/01 04:41:15;;;;;;;25.00;7.35;;;5.50;84.10;;;;;;5040306;28;20037;-74
2023/02/01 04:43:41;;;;;;;26.67;7.43;;;5.50;84.30;;;;;;5038568;28;20071;-74
2023/02/01 04:46:06;;;;;;;25.58;7.38;;;5.50;84.50;;;;;;5037323;28;20029;-74
2023/02/01 04:48:32;;;;;;;21.02;7.18;;;5.50;84.40;;;;;;5036951;28;20082;-74
2023/02/01 04:50:58;;;;;;;31.77;7.35;;;5.50;84.30;;;;;;5041553;28;20351;-74
2023/02/01 04:53:23;;;;;;;26.60;7.75;;;5.50;84.30;;;;;;5038254;28;20366;-74
2023/02/01 04:55:49;;;;;;;28.77;6.40;;;5.50;84.50;;;;;;5037746;28;20686;-74
2023/02/01 04:58:15;;;;;;;28.20;7.20;;;5.50;84.50;;;;;;5033919;28;20013;-74
2023/02/01 05:00:41;;;;;;;24.63;6.78;;;5.40;84.60;;;;;;5038765;28;20618;-74
2023/02/01 05:03:07;;;;;;;32.70;7.50;;;5.40;84.70;;;;;;5034337;28;20045;-74
2023/02/01 05:05:32;;;;;;;26.00;6.85;;;5.40;84.60;;;;;;5037450;28;20028;-74
2023/02/01 05:07:58;;;;;;;26.20;7.80;;;5.40;84.60;;;;;;5042636;28;20477;-75
2023/02/01 05:10:24;;;;;;;31.50;8.32;;;5.40;84.80;;;;;;5041689;28;20040;-75
2023/02/01 05:15:34;;;;;;;26.88;8.00;;;5.40;85.00;;;;;;5039455;28;20515;-74
2023/02/01 05:18:00;;;;;;;31.50;7.38;;;5.30;85.00;;;;;;5037621;28;20017;-74
2023/02/01 05:20:25;;;;;;;27.33;7.45;;;5.40;85.10;;;;;;5039390;28;20061;-74
2023/02/01 05:22:51;;;;;;;22.90;6.35;;;5.40;85.20;;;;;;5041585;28;20055;-75
2023/02/01 05:25:17;;;;;;;26.52;7.03;;;5.30;85.10;;;;;;5043349;28;20266;-74
2023/02/01 05:27:42;;;;;;;24.63;6.57;;;5.40;85.00;;;;;;5043401;28;20034;-75
2023/02/01 05:30:09;;;;;;;27.30;6.80;;;5.30;85.20;;;;;;5042524;28;20636;-74
2023/02/01 05:32:35;;;;;;;30.98;8.55;;;5.30;85.30;;;;;;5035658;28;20026;-74
2023/02/01 05:35:00;;;;;;;27.75;7.00;;;5.30;85.30;;;;;;5040974;28;20045;-75
2023/02/01 05:37:26;;;;;;;28.25;6.25;;;5.30;85.50;;;;;;5042827;28;20048;-74
2023/02/01 05:39:52;;;;;;;26.98;5.85;;;5.20;85.40;;;;;;5041473;28;20086;-75
2023/02/01 05:42:18;;;;;;;21.85;5.97;;;5.20;85.60;;;;;;5040954;28;20033;-74
2023/02/01 05:44:43;;;;;;;22.30;5.93;;;5.20;85.70;;;;;;5045211;28;20041;-74
2023/02/01 05:47:10;;;;;;;27.02;7.07;;;5.10;85.70;;;;;;5042889;28;20069;-74
2023/02/01 05:49:35;;;;;;;31.35;6.97;;;5.20;85.90;;;;;;5035078;28;20041;-74
2023/02/01 05:52:01;;;;;;;25.35;7.15;;;5.10;85.90;;;;;;5040559;28;20045;-74
2023/02/01 05:54:27;;;;;;;22.80;5.63;;;5.10;85.90;;;;;;5040953;28;20080;-75
2023/02/01 05:56:52;;;;;;;29.75;7.68;;;5.10;86.10;;;;;;5043304;28;20033;-75
2023/02/01 05:59:18;;;;;;;32.70;7.90;;;5.10;86.20;;;;;;5043176;28;20025;-74
2023/02/01 06:01:44;;;;;;;21.83;5.60;;;5.10;86.20;;;;;;5041142;28;20098;-74
2023/02/01 06:04:09;;;;;;;25.85;6.43;;;5.00;86.20;;;;;;5040510;28;20099;-74
2023/02/01 06:06:36;;;;;;;28.05;6.93;;;5.00;86.30;;;;;;5039031;28;20090;-74
2023/02/01 06:09:03;;;;;;;23.52;6.47;;;5.00;86.30;;;;;;5034991;28;20022;-74
2023/02/01 06:11:29;;;;;;;22.75;6.45;;;5.00;86.40;;;;;;5036717;28;20424;-74
2023/02/01 06:13:55;;;;;;;31.45;7.00;;;5.00;86.50;;;;;;5038116;28;20106;-74
2023/02/01 06:16:21;;;;;;;27.60;8.50;;;4.90;86.60;;;;;;5040703;28;20525;-74
2023/02/01 06:18:47;;;;;;;31.42;6.55;;;4.90;86.70;;;;;;5035287;28;20201;-74
2023/02/01 06:21:15;;;;;;;22.85;6.45;;;4.90;86.80;;;;;;5035360;28;20032;-74
2023/02/01 06:23:41;;;;;;;21.55;5.78;;;5.00;86.90;;;;;;5037029;28;20397;-74
2023/02/01 06:26:07;;;;;;;24.98;7.05;;;5.00;86.80;;;;;;5036066;28;20171;-74
2023/02/01 06:28:34;;;;;;;28.25;7.45;;;4.90;86.80;;;;;;5036581;28;20053;-74
2023/02/01 06:31:06;;;;;;;27.38;6.63;;;4.90;86.70;;;;;;5035746;28;20028;-74
2023/02/01 06:33:33;;;;;;;27.58;6.72;;;4.90;86.80;;;;;;5042031;28;20041;-74
2023/02/01 06:36:00;;;;;;;24.02;6.65;;;4.90;86.90;;;;;;5035933;28;20021;-74
2023/02/01 06:38:26;;;;;;;28.08;6.43;;;4.90;87.00;;;;;;5040330;28;20049;-74
2023/02/01 06:40:57;;;;;;;27.92;8.20;;;4.90;87.10;;;;;;5034357;28;20033;-74
2023/02/01 06:43:25;;;;;;;28.42;8.52;;;4.90;87.20;;;;;;5032260;28;20477;-75
2023/02/01 06:45:51;;;;;;;26.23;7.43;;;4.90;87.10;;;;;;5038597;28;20041;-74
2023/02/01 06:48:17;;;;;;;27.15;6.97;;;4.90;87.10;;;;;;5040227;28;20039;-74
2023/02/01 06:50:43;;;;;;;24.42;6.82;;;4.90;87.00;;;;;;5038962;28;20029;-74
2023/02/01 06:53:09;;;;;;;28.45;7.22;;;4.90;87.10;;;;;;5041523;28;20017;-74
2023/02/01 06:55:34;;;;;;;32.05;8.85;;;5.00;86.90;;;;;;5037659;28;20025;-74
2023/02/01 06:58:01;;;;;;;26.98;6.88;;;4.90;86.90;;;;;;5032998;28;20017;-74
2023/02/01 07:00:28;;;;;;;30.17;7.40;;;5.00;86.90;;;;;;5037932;28;20638;-74
2023/02/01 07:02:54;;;;;;;30.48;7.95;;;5.00;86.80;;;;;;5039744;28;20027;-74
2023/02/01 07:05:20;;;;;;;28.77;6.82;;;5.00;86.80;;;;;;5035979;28;20050;-74
2023/02/01 07:07:46;;;;;;;27.63;6.40;;;5.00;86.70;;;;;;5035319;28;20041;-75
2023/02/01 07:10:11;;;;;;;32.75;7.32;;;5.00;86.50;;;;;;5035807;28;20021;-74
2023/02/01 07:12:37;;;;;;;28.23;7.53;;;5.10;86.50;;;;;;5040333;28;20425;-74
2023/02/01 07:15:04;;;;;;;26.70;7.70;;;5.10;86.30;;;;;;5032809;28;20036;-75
2023/02/01 07:17:29;;;;;;;30.17;8.23;;;5.10;86.20;;;;;;5036263;28;20108;-80
2023/02/01 07:19:56;;;;;;;29.73;8.10;;;5.10;86.10;;;;;;5044161;28;20108;-79
2023/02/01 07:22:23;;;;;;;32.70;8.93;;;5.10;86.00;;;;;;5037866;28;20125;-81
2023/02/01 07:24:48;;;;;;;26.38;6.82;;;5.10;85.90;;;;;;5037771;28;20025;-76
2023/02/01 07:27:14;;;;;;;24.15;5.80;;;5.10;86.00;;;;;;5035103;28;20039;-77
2023/02/01 07:29:39;;;;;;;28.08;6.47;;;5.10;86.10;;;;;;5038192;28;20346;-79
2023/02/01 07:32:05;;;;;;;24.60;7.22;;;5.10;86.00;;;;;;5041786;28;20032;-76
2023/02/01 07:34:31;;;;;;;26.33;7.20;;;5.10;86.10;;;;;;5036751;28;20092;-77
2023/02/01 07:36:57;;;;;;;22.38;6.40;;;5.20;85.80;;;;;;5044500;28;20067;-77
2023/02/01 07:39:23;;;;;;;28.33;8.38;;;5.20;85.70;;;;;;5044417;28;20020;-77
2023/02/01 07:41:48;;;;;;;22.45;6.95;;;5.30;85.70;;;;;;5044053;28;20045;-81
2023/02/01 07:44:14;;;;;;;33.17;6.82;;;5.30;85.50;;;;;;5038401;28;20017;-80
2023/02/01 07:46:40;;;;;;;24.90;7.45;;;5.40;85.40;;;;;;5042072;28;20229;-79
2023/02/01 07:49:06;;;;;;;30.10;6.93;;;5.50;85.30;;;;;;5038281;28;20048;-79
2023/02/01 07:51:32;;;;;;;24.42;7.03;;;5.50;85.10;;;;;;5038548;28;20025;-79
2023/02/01 07:53:57;;;;;;;21.08;6.43;;;5.60;85.00;;;;;;5039940;28;20029;-76
2023/02/01 07:56:25;;;;;;;24.38;6.85;;;5.60;85.00;;;;;;5038003;28;20029;-81
2023/02/01 07:58:51;;;;;;;18.77;6.15;;;5.60;84.80;;;;;;5041067;28;20032;-80
2023/02/01 08:01:25;;;;;;;25.10;7.28;;;5.70;84.70;;;;;;5034715;28;20045;-80
2023/02/01 08:03:59;;;;;;;27.27;7.18;;;5.70;84.60;;;;;;5036736;28;20053;-79
2023/02/01 08:06:26;;;;;;;26.23;7.67;;;5.80;84.50;;;;;;5038079;28;20041;-78
2023/02/01 08:08:53;;;;;;;30.13;8.10;;;5.80;84.50;;;;;;5037311;28;20017;-78
2023/02/01 08:11:21;;;;;;;26.77;6.72;;;5.80;84.20;;;;;;5039794;28;20037;-79
2023/02/01 08:13:46;;;;;;;25.25;7.07;;;6.00;83.90;;;;;;5036557;28;20029;-80
2023/02/01 08:16:14;;;;;;;26.23;7.40;;;6.10;83.50;;;;;;5037675;28;20032;-79
2023/02/01 08:18:41;;;;;;;28.05;7.00;;;6.10;83.20;;;;;;5039313;28;20059;-80
2023/02/01 08:21:19;;;;;;;25.42;6.97;;;6.10;83.30;;;;;;5040860;28;20047;-81
2023/02/01 08:23:45;;;;;;;28.85;7.53;;;6.20;83.00;;;;;;5040268;28;20048;-80
2023/02/01 08:26:18;;;;;;;31.75;7.53;;;6.20;82.80;;;;;;5040525;28;20026;-79
2023/02/01 08:28:47;;;;;;;24.67;5.50;;;6.30;82.70;;;;;;5038804;28;20071;-77
2023/02/01 08:31:15;;;;;;;26.73;6.65;;;6.40;82.50;;;;;;5040096;28;20027;-82
2023/02/01 08:33:42;;;;;;;25.67;5.55;;;6.40;82.50;;;;;;5040974;28;20364;-78
2023/02/01 08:36:09;;;;;;;20.58;6.55;;;6.50;82.20;;;;;;5040791;28;20381;-80
2023/02/01 08:38:36;;;;;;;28.17;7.25;;;6.50;82.00;;;;;;5039275;28;20043;-81
2023/02/01 08:41:13;;;;;;;20.30;6.18;;;6.60;81.80;;;;;;5042301;28;20041;-81
2023/02/01 08:43:39;;;;;;;20.60;5.43;;;6.60;81.60;;;;;;5040377;28;20525;-80
2023/02/01 08:46:05;;;;;;;23.58;6.30;;;6.60;81.70;;;;;;5035697;28;20037;-81
2023/02/01 08:48:31;;;;;;;26.63;6.07;;;6.70;81.60;;;;;;5037045;28;20489;-81
2023/02/01 08:51:00;;;;;;;20.90;6.05;;;6.70;81.60;;;;;;5038388;28;20021;-78
2023/02/01 08:53:26;;;;;;;23.77;6.13;;;6.80;81.60;;;;;;5033814;28;21175;-77
2023/02/01 08:55:51;;;;;;;24.90;6.47;;;6.90;81.20;;;;;;5039065;28;20052;-76
2023/02/01 08:58:17;;;;;;;24.35;6.20;;;6.90;81.00;;;;;;5035647;28;20093;-81
2023/02/01 09:00:47;;;;;;;24.15;6.80;;;7.00;81.10;;;;;;5049316;28;20087;-81
2023/02/01 09:03:14;;;;;;;28.23;6.50;;;7.00;80.90;;;;;;5035043;28;20025;-80
2023/02/01 09:05:39;;;;;;;23.15;6.90;;;7.10;80.90;;;;;;5041601;28;20314;-75
2023/02/01 09:08:06;;;;;;;29.48;8.25;;;7.10;80.60;;;;;;5044978;28;20025;-80
2023/02/01 09:10:32;;;;;;;22.30;7.03;;;7.10;80.40;;;;;;5035844;28;20101;-83
2023/02/01 09:12:57;;;;;;;25.13;6.68;;;7.20;80.20;;;;;;5039153;28;20032;-76
2023/02/01 09:15:23;;;;;;;26.15;6.28;;;7.10;80.30;;;;;;5037435;28;20098;-78
2023/02/01 09:17:49;;;;;;;24.85;5.93;;;7.20;80.30;;;;;;5038357;28;20373;-79
2023/02/01 09:20:15;;;;;;;25.13;5.82;;;7.20;80.00;;;;;;5035785;28;20402;-80
2023/02/01 09:22:40;;;;;;;21.00;6.20;;;7.40;79.80;;;;;;5036023;28;20068;-78
2023/02/01 09:25:07;;;;;;;20.83;5.45;;;7.40;79.60;;;;;;5037626;28;20100;-78
2023/02/01 09:27:33;;;;;;;22.55;5.65;;;7.40;79.30;;;;;;5036548;28;20377;-75
2023/02/01 09:29:59;;;;;;;24.10;5.70;;;7.40;79.60;;;;;;5036876;28;20029;-77
2023/02/01 09:32:25;;;;;;;26.50;4.93;;;7.40;79.20;;;;;;5036688;28;20067;-79
2023/02/01 09:34:51;;;;;;;22.10;5.18;;;7.40;79.30;;;;;;5037506;28;20056;-78
2023/02/01 09:37:17;;;;;;;23.98;6.03;;;7.50;78.90;;;;;;5037156;28;21291;-79
2023/02/01 09:39:43;;;;;;;25.55;5.85;;;7.50;78.80;;;;;;5037020;28;20091;-81
2023/02/01 09:42:28;;;;;;;26.45;6.38;;;7.60;78.70;;;;;;5035403;28;20425;-76
2023/02/01 09:45:21;;;;;;;20.77;5.15;;;7.60;78.70;;;;;;5034927;28;20036;-78
2023/02/01 09:47:54;;;;;;;23.25;6.50;;;7.80;78.30;;;;;;5035333;28;20025;-78
2023/02/01 09:50:42;;;;;;;23.70;6.00;;;7.90;78.10;;;;;;5037029;28;20048;-79
2023/02/01 09:53:28;;;;;;;20.80;5.05;;;8.10;77.40;;;;;;5036532;28;20041;-75
2023/02/01 09:56:12;;;;;;;16.95;6.40;;;8.30;76.70;;;;;;5038211;28;20048;-75
2023/02/01 09:58:51;;;;;;;20.73;5.13;;;8.50;76.20;;;;;;5035298;28;20021;-78
2023/02/01 10:01:23;;;;;;;23.67;4.97;;;8.50;75.20;;;;;;5035465;28;20033;-81
2023/02/01 10:03:50;;;;;;;23.42;6.15;;;8.60;74.90;;;;;;5036921;28;20472;-78
2023/02/01 10:06:27;;;;;;;17.80;5.18;;;8.50;75.20;;;;;;5035239;28;20029;-75
2023/02/01 10:09:30;;;;;;;20.10;5.20;;;8.50;75.60;;;;;;5036795;28;20048;-77
2023/02/01 10:12:21;;;;;;;22.42;5.80;;;8.40;74.80;;;;;;5038752;28;20059;-77
2023/02/01 10:14:58;;;;;;;21.48;5.15;;;8.50;75.10;;;;;;5041051;28;20036;-75
2023/02/01 10:17:44;;;;;;;16.15;3.83;;;8.60;74.60;;;;;;5039511;28;20345;-75
2023/02/01 10:20:23;;;;;;;23.65;5.20;;;8.50;74.60;;;;;;5040012;28;20055;-76
2023/02/01 10:22:59;;;;;;;18.05;5.30;;;8.50;74.40;;;;;;5041303;28;20045;-74
2023/02/01 10:25:55;;;;;;;21.02;5.22;;;8.40;74.70;;;;;;5040072;28;20048;-77
2023/02/01 10:28:24;;;;;;;17.08;3.72;;;8.60;74.20;;;;;;5030574;28;20123;-77
2023/02/01 10:30:54;;;;;;;16.48;3.95;;;8.60;73.60;;;;;;5040280;28;20939;-78
2023/02/01 10:33:30;;;;;;;16.25;4.43;;;8.70;73.60;;;;;;5039833;28;20398;-77
2023/02/01 10:36:05;;;;;;;17.40;3.95;;;8.80;73.30;;;;;;5041293;28;20106;-78
2023/02/01 10:38:33;;;;;;;22.23;4.65;;;8.80;73.10;;;;;;5038981;28;20036;-76
2023/02/01 10:41:11;;;;;;;15.60;3.88;;;8.80;72.90;;;;;;5039872;28;20037;-77
2023/02/01 10:43:39;;;;;;;15.65;4.43;;;8.90;73.00;;;;;;5039948;28;20078;-77
2023/02/01 10:46:06;;;;;;;19.63;4.43;;;8.80;72.90;;;;;;5039937;28;20038;-76
2023/02/01 10:48:32;;;;;;;16.83;4.80;;;8.90;72.70;;;;;;5041227;28;20073;-78
2023/02/01 10:51:06;;;;;;;18.25;4.03;;;8.90;72.20;;;;;;5037980;28;21206;-74
2023/02/01 10:53:41;;;;;;;20.55;4.57;;;8.80;72.00;;;;;;5041661;28;20282;-80
2023/02/01 10:56:12;;;;;;;18.08;3.95;;;8.80;72.10;;;;;;5039284;28;20091;-77
2023/02/01 10:58:46;;;;;;;17.23;4.60;;;8.80;72.10;;;;;;5039717;28;20027;-77
2023/02/01 11:01:30;;;;;;;16.95;4.43;;;8.80;71.30;;;;;;5039971;28;20029;-77
2023/02/01 11:03:58;;;;;;;13.57;3.40;;;8.80;71.10;;;;;;5039393;28;20017;-78
2023/02/01 11:06:38;;;;;;;15.55;4.72;;;9.10;71.00;;;;;;5036898;28;20029;-79
2023/02/01 11:09:10;;;;;;;17.13;4.43;;;9.10;70.40;;;;;;5037590;28;20032;-78
2023/02/01 11:11:57;;;;;;;17.58;3.70;;;9.00;70.40;;;;;;5037810;28;20056;-72
2023/02/01 11:14:26;;;;;;;18.42;4.68;;;9.10;69.30;;;;;;5038942;28;20044;-76
2023/02/01 11:16:57;;;;;;;15.65;4.15;;;9.10;69.60;;;;;;5038826;28;20546;-77
2023/02/01 11:19:23;;;;;;;13.98;3.70;;;9.10;69.80;;;;;;5038417;28;20357;-79
2023/02/01 11:21:54;;;;;;;16.95;3.58;;;9.30;69.10;;;;;;5039842;28;20044;-78
2023/02/01 11:24:24;;;;;;;16.48;4.43;;;9.30;69.00;;;;;;5036747;28;20530;-78
2023/02/01 11:26:53;;;;;;;17.83;3.72;;;9.40;68.60;;;;;;5039584;28;20036;-74
2023/02/01 11:29:24;;;;;;;24.58;4.80;;;9.40;69.00;;;;;;5041451;28;20021;-76
2023/02/01 11:31:50;;;;;;;16.77;4.15;;;9.50;69.00;;;;;;5036698;28;20056;-78
2023/02/01 11:34:20;;;;;;;17.95;4.15;;;9.60;68.40;;;;;;5039426;28;20373;-78
2023/02/01 11:36:48;;;;;;;13.30;4.15;;;9.60;67.10;;;;;;5033562;28;20033;-73
2023/02/01 11:39:30;;;;;;;15.75;4.13;;;9.70;67.40;;;;;;5034068;28;20642;-77
2023/02/01 11:42:05;;;;;;;15.77;3.45;;;9.70;66.70;;;;;;5030039;28;20045;-76
2023/02/01 11:44:34;;;;;;;17.95;3.70;;;9.80;66.20;;;;;;5029982;28;20051;-77
2023/02/01 11:47:22;;;;;;;12.93;3.15;;;9.80;66.10;;;;;;5047457;28;20040;-77
2023/02/01 11:49:49;;;;;;;13.55;3.17;;;9.80;64.80;;;;;;5033062;28;20041;-79
2023/02/01 11:52:29;;;;;;;12.00;3.35;;;10.00;65.50;;;;;;5031132;28;20041;-77
2023/02/01 11:55:03;;;;;;;14.70;3.65;;;10.10;65.10;;;;;;5031427;28;20044;-77
2023/02/01 11:57:58;;;;;;;14.38;3.28;;;10.20;64.40;;;;;;5032624;28;20053;-77
2023/02/01 12:00:45;;;;;;;15.20;3.85;;;10.20;64.70;;;;;;5031492;28;20390;-77
2023/02/01 12:03:23;;;;;;;21.17;4.25;;;10.30;64.30;;;;;;5033045;28;20060;-76
2023/02/01 12:06:07;;;;;;;14.23;4.60;;;10.40;64.00;;;;;;5029288;28;20037;-76
2023/02/01 12:08:51;;;;;;;13.25;3.78;;;10.40;63.10;;;;;;5031429;28;20029;-77
2023/02/01 12:11:33;;;;;;;11.07;3.13;;;10.30;63.60;;;;;;5029120;28;20041;-77
2023/02/01 12:14:28;;;;;;;10.95;2.70;;;10.30;63.30;;;;;;5029035;28;20040;-76
2023/02/01 12:17:02;;;;;;;12.35;3.55;;;10.40;63.20;;;;;;5029307;28;20041;-75
2023/02/01 12:19:40;;;;;;;;;;;10.50;63.00;;;;;;5031419;28;20059;-76
2023/02/01 12:22:33;;;;;;;13.48;3.35;;;10.40;61.90;;;;;;5029737;28;19952;-77
2023/02/01 12:25:41;;;;;;;14.65;2.90;;;10.40;62.20;;;;;;5031926;28;20013;-77
2023/02/01 12:28:28;;;;;;;12.40;3.05;;;10.40;61.10;;;;;;5028493;28;20038;-75
2023/02/01 12:31:30;;;;;;;13.73;3.33;;;10.70;61.90;;;;;;5027547;28;20071;-76
2023/02/01 12:34:19;;;;;;;17.05;3.85;;;10.80;61.50;;;;;;5028623;28;20041;-79
2023/02/01 12:37:09;;;;;;;12.75;2.90;;;10.90;60.10;;;;;;5032559;28;20040;-79
2023/02/01 12:39:45;;;;;;;14.27;2.95;;;10.80;61.10;;;;;;5030093;28;20473;-80
2023/02/01 12:42:20;;;;;;;13.90;3.25;;;10.80;61.00;;;;;;5028080;28;20036;-77
2023/02/01 12:44:56;;;;;;;15.13;3.15;;;10.60;61.50;;;;;;5030167;28;20253;-79
2023/02/01 12:47:50;;;;;;;13.38;3.33;;;10.60;61.40;;;;;;5023671;28;20069;-78
2023/02/01 12:50:26;;;;;;;16.15;3.28;;;10.50;62.50;;;;;;5027018;28;20067;-78
2023/02/01 12:52:56;;;;;;;13.32;3.13;;;10.50;62.70;;;;;;5029408;28;20042;-79
2023/02/01 12:55:36;;;;;;;11.05;2.63;;;10.50;62.60;;;;;;5030859;28;20029;-77
2023/02/01 12:58:17;;;;;;;12.93;3.08;;;10.40;62.80;;;;;;5036878;28;20116;-78
2023/02/01 13:01:09;;;;;;;14.82;3.28;;;10.50;63.40;;;;;;5035974;28;20085;-75
2023/02/01 13:04:05;;;;;;;11.27;2.95;;;10.60;63.30;;;;;;5034788;28;20059;-75
2023/02/01 13:06:35;;;;;;;13.50;4.07;;;10.60;62.70;;;;;;5034155;28;20029;-77
2023/02/01 13:09:26;;;;;;;15.90;3.92;;;10.70;62.30;;;;;;5035131;28;20982;-76
2023/02/01 13:11:58;;;;;;;13.45;3.35;;;10.60;62.60;;;;;;5032314;28;20191;-76
2023/02/01 13:14:27;;;;;;;17.10;3.25;;;10.60;62.60;;;;;;5033407;28;20453;-75
2023/02/01 13:17:04;;;;;;;11.93;3.40;;;10.60;63.00;;;;;;5032044;28;20029;-74
2023/02/01 13:19:51;;;;;;;15.73;3.53;;;10.60;62.50;;;;;;5032096;28;20017;-75
2023/02/01 13:22:28;;;;;;;14.57;2.97;;;10.60;62.70;;;;;;5034962;28;20045;-76
2023/02/01 13:25:00;;;;;;;10.82;2.70;;;10.50;63.20;;;;;;5033063;28;20021;-76
2023/02/01 13:27:30;;;;;;;17.17;3.20;;;10.40;63.70;;;;;;5034418;28;20072;-78
2023/02/01 13:30:15;;;;;;;11.38;3.45;;;10.70;63.70;;;;;;5037141;28;20385;-77